Portada
METAR-TAF:

METAR-TAF

Aeroports :

Hōfu, Japó

latitud: 34-02N, longitud: 131-33E, altitud: 2 m

Observació

L'informe es va fer fa 44 minuts, a les 20:21 UTC
Vent 4 kt del Nord
Temperatura 6°C
Humitat 93%
Pressió 1016 hPa
Visibilitat: 3500 m
Escasses núvols a una alçada de 300 ft
Cel ennuvolat a una alçada de 500 ft
Cel cobert a una alçada de 800 ft
pluja, plugim, boirina

METAR: RJOF 282021Z 01004KT 3500 -RADZ BR FEW003 BKN005 OVC008 06/05 Q1016 RMK 2ST003 6ST005 8ST008 A3003

Hora: 06:05 (21:05 UTC)


TAF: manca

Observacions i pronòstics meteorològics de més de 4000 aeroports (METAR i TAF).

Les estacions disponibles són els punts grocs i vermells al mapa.

Posi el ratolí al punt desitjat per veure el nom de l'estació.

Feu clic per veure les observacions i els pronòstics meteorològics.

Per canviar el mapa: feu clic els botons verds amb una creu de color negre per apropar; al botó verd amb un guió per allunyar la imatge; o en les fletxes verdes per a mapes adjacents.


METAR-TAF: